createdAt,value
2022-11-20T00:00:27.621Z,-1.23
2022-11-20T00:02:53.717Z,-1.21
2022-11-20T00:05:20.129Z,-1.05
2022-11-20T00:07:46.230Z,-0.97
2022-11-20T00:10:12.315Z,-0.80
2022-11-20T00:12:38.415Z,-0.67
2022-11-20T00:15:04.515Z,-0.77
2022-11-20T00:17:30.609Z,-0.96
2022-11-20T00:19:56.717Z,-0.69
2022-11-20T00:22:22.800Z,-0.62
2022-11-20T00:24:48.884Z,-0.50
2022-11-20T00:27:14.997Z,-0.30
2022-11-20T00:29:41.083Z,-0.09
2022-11-20T00:32:07.163Z,-0.17
2022-11-20T00:34:33.263Z,0.00
2022-11-20T00:36:59.382Z,0.20
2022-11-20T00:39:25.476Z,0.26
2022-11-20T00:41:51.601Z,0.24
2022-11-20T00:44:17.728Z,0.29
2022-11-20T00:46:43.827Z,0.14
2022-11-20T00:49:09.931Z,0.19
2022-11-20T00:51:36.015Z,0.30
2022-11-20T00:54:02.113Z,0.38
2022-11-20T00:56:28.228Z,0.47
2022-11-20T00:58:54.321Z,0.49
2022-11-20T01:01:20.508Z,0.59
2022-11-20T01:03:46.938Z,0.80
2022-11-20T01:06:13.029Z,0.75
2022-11-20T01:08:39.120Z,0.89
2022-11-20T01:11:05.221Z,0.91
2022-11-20T01:13:31.313Z,0.92
2022-11-20T01:15:57.409Z,0.89
2022-11-20T01:18:23.528Z,0.83
2022-11-20T01:20:49.630Z,0.95
2022-11-20T01:23:15.716Z,1.02
2022-11-20T01:25:41.888Z,1.03
2022-11-20T01:28:07.976Z,0.99
2022-11-20T01:30:34.064Z,1.08
2022-11-20T01:33:00.178Z,1.22
2022-11-20T01:35:26.263Z,1.19
2022-11-20T01:37:52.361Z,1.18
2022-11-20T01:40:18.487Z,1.25
2022-11-20T01:42:44.596Z,1.27
2022-11-20T01:45:10.678Z,1.36
2022-11-20T01:47:36.780Z,1.40
2022-11-20T01:50:02.876Z,1.50
2022-11-20T01:52:28.962Z,1.42
2022-11-20T01:54:55.085Z,1.41
2022-11-20T01:57:21.181Z,1.34
2022-11-20T01:59:47.264Z,1.42
2022-11-20T02:02:13.370Z,1.42
2022-11-20T02:04:39.456Z,1.33
2022-11-20T02:07:05.607Z,1.33
2022-11-20T02:09:32.257Z,1.51
2022-11-20T02:11:58.357Z,1.49
2022-11-20T02:14:24.448Z,1.51
2022-11-20T02:16:50.555Z,1.62
2022-11-20T02:19:16.635Z,1.60
2022-11-20T02:21:42.729Z,1.53
2022-11-20T02:24:08.829Z,1.61
2022-11-20T02:26:34.924Z,1.68
2022-11-20T02:29:01.029Z,1.77
2022-11-20T02:31:27.173Z,1.82
2022-11-20T02:33:53.266Z,1.82
2022-11-20T02:36:19.364Z,1.83
2022-11-20T02:38:45.459Z,1.85
2022-11-20T02:41:11.550Z,1.86
2022-11-20T02:43:37.648Z,1.90
2022-11-20T02:46:03.765Z,1.91
2022-11-20T02:48:33.653Z,1.81
2022-11-20T02:51:00.088Z,1.91
2022-11-20T02:53:26.205Z,1.78
2022-11-20T02:55:52.305Z,1.78
2022-11-20T02:58:18.385Z,1.79
2022-11-20T03:00:44.491Z,1.83
2022-11-20T03:03:10.581Z,1.84
2022-11-20T03:05:36.669Z,1.93
2022-11-20T03:08:03.255Z,1.89
2022-11-20T03:10:29.363Z,1.96
2022-11-20T03:12:55.457Z,1.98
2022-11-20T03:15:21.607Z,2.03
2022-11-20T03:17:47.718Z,2.04
2022-11-20T03:20:13.806Z,2.03
2022-11-20T03:22:39.918Z,1.96
2022-11-20T03:25:06.000Z,1.91
2022-11-20T03:27:32.093Z,1.96
2022-11-20T03:29:58.212Z,2.00
2022-11-20T03:32:24.295Z,1.95
2022-11-20T03:34:50.423Z,1.88
2022-11-20T03:37:16.637Z,1.93
2022-11-20T03:39:42.764Z,1.92
2022-11-20T03:42:08.865Z,1.98
2022-11-20T03:44:34.977Z,2.03
2022-11-20T03:47:01.066Z,2.15
2022-11-20T03:49:27.160Z,2.22
2022-11-20T03:51:53.281Z,2.18
2022-11-20T03:54:19.364Z,2.19
2022-11-20T03:56:45.461Z,2.24
2022-11-20T03:59:11.569Z,2.30
2022-11-20T04:01:37.691Z,2.34
2022-11-20T04:04:03.843Z,2.34
2022-11-20T04:06:29.953Z,2.30
2022-11-20T04:08:56.048Z,2.27
2022-11-20T04:11:22.135Z,2.27
2022-11-20T04:13:48.533Z,2.30
2022-11-20T04:16:14.619Z,2.38
2022-11-20T04:18:40.708Z,2.42
2022-11-20T04:21:06.834Z,2.41
2022-11-20T04:23:32.932Z,2.33
2022-11-20T04:25:59.028Z,2.38
2022-11-20T04:28:25.140Z,2.26
2022-11-20T04:30:52.532Z,2.22
2022-11-20T04:33:18.620Z,2.34
2022-11-20T04:35:44.725Z,2.27
2022-11-20T04:38:10.812Z,2.27
2022-11-20T04:40:36.895Z,2.20
2022-11-20T04:43:03.007Z,2.23
2022-11-20T04:45:29.099Z,2.28
2022-11-20T04:47:55.193Z,2.03
2022-11-20T04:50:21.291Z,2.04
2022-11-20T04:52:47.379Z,2.11
2022-11-20T04:55:13.478Z,2.17
2022-11-20T04:57:39.591Z,2.33
2022-11-20T05:00:05.687Z,2.50
2022-11-20T05:02:31.889Z,2.40
2022-11-20T05:04:57.997Z,2.45
2022-11-20T05:07:24.129Z,2.39
2022-11-20T05:09:50.277Z,2.39
2022-11-20T05:12:16.385Z,2.33
2022-11-20T05:14:42.478Z,2.37
2022-11-20T05:17:08.571Z,2.45
2022-11-20T05:19:35.166Z,2.44
2022-11-20T05:22:01.252Z,2.44
2022-11-20T05:24:27.348Z,2.55
2022-11-20T05:26:53.472Z,2.52
2022-11-20T05:29:19.874Z,2.48
2022-11-20T05:31:46.225Z,2.46
2022-11-20T05:34:12.343Z,2.27
2022-11-20T05:36:38.457Z,2.34
2022-11-20T05:39:04.543Z,2.40
2022-11-20T05:41:30.694Z,2.37
2022-11-20T05:43:56.791Z,2.30
2022-11-20T05:46:28.305Z,2.39
2022-11-20T05:48:55.287Z,2.31
2022-11-20T05:51:21.382Z,2.34
2022-11-20T05:53:48.798Z,2.33
2022-11-20T05:56:15.087Z,2.32
2022-11-20T05:58:41.177Z,2.41
2022-11-20T06:01:07.267Z,2.35
2022-11-20T06:03:33.387Z,2.32
2022-11-20T06:05:59.475Z,2.39
2022-11-20T06:08:25.576Z,2.47
2022-11-20T06:10:51.693Z,2.44
2022-11-20T06:13:17.782Z,2.45
2022-11-20T06:15:43.863Z,2.45
2022-11-20T06:18:10.028Z,2.43
2022-11-20T06:20:41.816Z,2.54
2022-11-20T06:23:08.243Z,2.41
2022-11-20T06:25:34.836Z,2.37
2022-11-20T06:28:00.933Z,2.41
2022-11-20T06:30:27.024Z,2.34
2022-11-20T06:32:53.130Z,2.22
2022-11-20T06:35:19.247Z,2.29
2022-11-20T06:37:45.336Z,2.32
2022-11-20T06:40:11.438Z,2.17
2022-11-20T06:42:37.537Z,2.23
2022-11-20T06:45:03.634Z,1.99
2022-11-20T06:47:30.033Z,1.90
2022-11-20T06:49:56.128Z,1.92
2022-11-20T06:52:22.224Z,2.11
2022-11-20T06:54:48.344Z,1.92
2022-11-20T06:57:14.440Z,1.83
2022-11-20T06:59:40.519Z,1.78
2022-11-20T07:02:06.615Z,1.64
2022-11-20T07:04:32.697Z,1.80
2022-11-20T07:06:58.832Z,1.67
2022-11-20T07:09:25.285Z,1.72
2022-11-20T07:11:51.572Z,1.58
2022-11-20T07:14:17.652Z,1.52
2022-11-20T07:16:43.767Z,1.72
2022-11-20T07:19:09.866Z,1.63
2022-11-20T07:21:35.951Z,1.47
2022-11-20T07:24:02.114Z,1.44
2022-11-20T07:26:28.204Z,1.32
2022-11-20T07:28:54.291Z,1.32
2022-11-20T07:31:20.385Z,1.38
2022-11-20T07:33:46.795Z,1.34
2022-11-20T07:36:13.062Z,1.39
2022-11-20T07:38:39.332Z,1.43
2022-11-20T07:41:05.603Z,1.57
2022-11-20T07:43:33.160Z,1.47
2022-11-20T07:46:02.235Z,1.50
2022-11-20T07:48:28.366Z,1.44
2022-11-20T07:50:54.461Z,1.44
2022-11-20T07:53:20.563Z,1.44
2022-11-20T07:55:46.660Z,1.31
2022-11-20T07:58:12.753Z,1.22
2022-11-20T08:00:38.896Z,1.17
2022-11-20T08:03:05.043Z,1.12
2022-11-20T08:05:31.134Z,1.13
2022-11-20T08:07:57.236Z,1.16
2022-11-20T08:10:23.325Z,1.27
2022-11-20T08:12:49.429Z,1.23
2022-11-20T08:15:15.537Z,1.14
2022-11-20T08:17:41.622Z,1.00
2022-11-20T08:20:07.713Z,1.08
2022-11-20T08:22:33.825Z,1.06
2022-11-20T08:24:59.919Z,1.27
2022-11-20T08:27:26.016Z,1.39
2022-11-20T08:29:52.615Z,1.30
2022-11-20T08:32:18.717Z,1.20
2022-11-20T08:34:44.800Z,1.25
2022-11-20T08:37:10.911Z,1.45
2022-11-20T08:39:37.001Z,1.43
2022-11-20T08:42:03.079Z,1.25
2022-11-20T08:44:29.179Z,1.17
2022-11-20T08:46:55.260Z,1.15
2022-11-20T08:49:21.570Z,1.37
2022-11-20T08:51:47.899Z,1.36
2022-11-20T08:54:13.983Z,1.27
2022-11-20T08:56:40.087Z,1.40
2022-11-20T08:59:37.193Z,1.47
2022-11-20T09:01:52.256Z,1.47
2022-11-20T09:04:18.351Z,1.43
2022-11-20T09:06:44.434Z,1.57
2022-11-20T09:09:10.524Z,1.52
2022-11-20T09:11:36.629Z,1.57
2022-11-20T09:14:02.731Z,1.60
2022-11-20T09:16:28.812Z,1.70
2022-11-20T09:19:13.554Z,1.81
2022-11-20T09:21:40.990Z,1.78
2022-11-20T09:24:07.108Z,1.73
2022-11-20T09:26:33.205Z,1.74
2022-11-20T09:28:59.293Z,1.74
2022-11-20T09:31:25.729Z,1.92
2022-11-20T09:33:51.977Z,2.03
2022-11-20T09:36:18.064Z,2.04
2022-11-20T09:38:44.185Z,2.14
2022-11-20T09:41:10.279Z,2.14
2022-11-20T09:43:37.091Z,2.19
2022-11-20T09:46:03.978Z,2.22
2022-11-20T09:48:31.940Z,2.41
2022-11-20T09:50:58.069Z,2.45
2022-11-20T09:53:24.182Z,2.44
2022-11-20T09:55:50.294Z,2.39
2022-11-20T09:58:16.384Z,2.35
2022-11-20T10:00:42.539Z,2.58
2022-11-20T10:03:08.653Z,2.65
2022-11-20T10:05:34.750Z,2.73
2022-11-20T10:08:00.898Z,2.75
2022-11-20T10:10:27.056Z,2.66
2022-11-20T10:12:53.143Z,2.78
2022-11-20T10:15:19.249Z,2.86
2022-11-20T10:17:45.353Z,3.03
2022-11-20T10:20:11.460Z,3.09
2022-11-20T10:22:37.585Z,3.05
2022-11-20T10:25:03.683Z,3.12
2022-11-20T10:27:29.776Z,3.17
2022-11-20T10:29:55.900Z,3.20
2022-11-20T10:32:22.037Z,3.19
2022-11-20T10:34:48.150Z,3.35
2022-11-20T10:37:14.739Z,3.26
2022-11-20T10:39:40.848Z,3.26
2022-11-20T10:42:06.950Z,3.28
2022-11-20T10:44:33.070Z,3.27
2022-11-20T10:46:59.169Z,3.44
2022-11-20T10:49:25.256Z,3.31
2022-11-20T10:51:51.415Z,3.42
2022-11-20T10:54:17.499Z,3.46
2022-11-20T10:56:49.485Z,3.39
2022-11-20T10:59:16.151Z,3.56
2022-11-20T11:01:42.250Z,3.54
2022-11-20T11:04:08.359Z,3.55
2022-11-20T11:06:34.482Z,3.34
2022-11-20T11:09:00.582Z,3.38
2022-11-20T11:11:26.668Z,3.35
2022-11-20T11:13:52.791Z,3.25
2022-11-20T11:16:18.900Z,3.18
2022-11-20T11:18:45.020Z,3.19
2022-11-20T11:21:11.155Z,3.22
2022-11-20T11:23:37.247Z,3.29
2022-11-20T11:26:03.708Z,3.35
2022-11-20T11:28:30.297Z,3.48
2022-11-20T11:30:56.383Z,3.55
2022-11-20T11:33:22.480Z,3.60
2022-11-20T11:35:51.387Z,3.63
2022-11-20T11:38:17.750Z,3.74
2022-11-20T11:40:43.852Z,3.70
2022-11-20T11:43:09.981Z,3.74
2022-11-20T11:45:36.078Z,3.73
2022-11-20T11:48:02.184Z,3.82
2022-11-20T11:50:28.310Z,3.87
2022-11-20T11:52:54.397Z,3.80
2022-11-20T11:55:20.485Z,3.81
2022-11-20T11:57:46.603Z,3.88
2022-11-20T12:00:12.703Z,3.96
2022-11-20T12:02:38.802Z,4.03
2022-11-20T12:05:04.956Z,4.07
2022-11-20T12:07:46.240Z,4.21
2022-11-20T12:10:13.330Z,4.41
2022-11-20T12:12:39.433Z,4.46
2022-11-20T12:15:05.520Z,4.51
2022-11-20T12:17:31.625Z,4.59
2022-11-20T12:19:57.707Z,4.76
2022-11-20T12:22:23.787Z,4.86
2022-11-20T12:24:49.892Z,4.83
2022-11-20T12:27:15.984Z,4.83
2022-11-20T12:29:42.068Z,5.06
2022-11-20T12:32:08.171Z,4.88
2022-11-20T12:34:34.263Z,4.78
2022-11-20T12:37:00.381Z,4.88
2022-11-20T12:39:26.608Z,5.00
2022-11-20T12:41:52.708Z,4.96
2022-11-20T12:44:18.799Z,5.12
2022-11-20T12:46:44.903Z,5.15
2022-11-20T12:49:10.988Z,5.21
2022-11-20T12:51:37.084Z,5.22
2022-11-20T12:54:03.476Z,5.21
2022-11-20T12:56:29.595Z,5.19
2022-11-20T12:58:55.688Z,5.22
2022-11-20T13:01:21.843Z,5.18
2022-11-20T13:03:47.989Z,5.16
2022-11-20T13:06:14.103Z,5.11
2022-11-20T13:08:40.244Z,5.10
2022-11-20T13:11:06.347Z,5.11
2022-11-20T13:13:32.434Z,5.04
2022-11-20T13:15:58.557Z,5.06
2022-11-20T13:18:24.661Z,5.06
2022-11-20T13:20:50.774Z,5.04
2022-11-20T13:23:16.876Z,5.06
2022-11-20T13:25:42.975Z,5.10
2022-11-20T13:28:09.071Z,5.12
2022-11-20T13:30:35.685Z,5.17
2022-11-20T13:33:01.777Z,5.08
2022-11-20T13:35:27.855Z,5.15
2022-11-20T13:37:53.970Z,5.07
2022-11-20T13:40:20.317Z,5.11
2022-11-20T13:42:46.479Z,5.16
2022-11-20T13:45:13.085Z,5.08
2022-11-20T13:47:39.175Z,4.89
2022-11-20T13:50:05.278Z,4.90
2022-11-20T13:52:31.392Z,5.01
2022-11-20T13:54:57.481Z,5.07
2022-11-20T13:57:23.587Z,4.97
2022-11-20T13:59:49.731Z,5.03
2022-11-20T14:02:15.856Z,5.03
2022-11-20T14:04:41.941Z,5.10
2022-11-20T14:07:08.098Z,5.09
2022-11-20T14:09:34.216Z,5.09
2022-11-20T14:12:00.318Z,5.12
2022-11-20T14:14:26.687Z,5.11
2022-11-20T14:16:52.966Z,5.15
2022-11-20T14:19:19.064Z,5.12
2022-11-20T14:21:45.164Z,5.09
2022-11-20T14:24:11.251Z,5.14
2022-11-20T14:26:37.341Z,5.03
2022-11-20T14:29:03.873Z,5.05
2022-11-20T14:31:29.964Z,5.10
2022-11-20T14:33:56.052Z,5.14
2022-11-20T14:36:22.525Z,5.19
2022-11-20T14:38:48.642Z,5.22
2022-11-20T14:41:14.744Z,5.18
2022-11-20T14:43:40.864Z,5.09
2022-11-20T14:46:06.961Z,5.06
2022-11-20T14:48:33.048Z,5.03
2022-11-20T14:50:59.222Z,5.00
2022-11-20T14:53:25.314Z,4.95
2022-11-20T14:55:54.969Z,4.98
2022-11-20T14:58:24.726Z,5.01
2022-11-20T15:00:50.824Z,4.94
2022-11-20T15:03:17.043Z,4.97
2022-11-20T15:05:43.235Z,4.97
2022-11-20T15:08:09.329Z,4.94
2022-11-20T15:10:35.436Z,4.90
2022-11-20T15:13:01.555Z,4.80
2022-11-20T15:15:27.646Z,4.90
2022-11-20T15:17:53.745Z,4.88
2022-11-20T15:20:19.860Z,4.87
2022-11-20T15:22:45.952Z,4.87
2022-11-20T15:25:12.044Z,4.86
2022-11-20T15:27:38.148Z,4.87
2022-11-20T15:30:04.247Z,4.93
2022-11-20T15:32:30.357Z,4.85
2022-11-20T15:34:56.472Z,4.90
2022-11-20T15:37:27.285Z,4.88
2022-11-20T15:39:55.894Z,4.87
2022-11-20T15:42:22.000Z,4.77
2022-11-20T15:44:48.117Z,4.69
2022-11-20T15:47:14.211Z,4.73
2022-11-20T15:49:40.795Z,4.77
2022-11-20T15:52:06.891Z,4.79
2022-11-20T15:54:32.984Z,4.81
2022-11-20T15:56:59.090Z,4.85
2022-11-20T15:59:25.191Z,4.79
2022-11-20T16:01:51.385Z,4.80
2022-11-20T16:04:17.927Z,4.85
2022-11-20T16:06:44.141Z,4.72
2022-11-20T16:09:10.233Z,4.79
2022-11-20T16:11:36.358Z,4.80
2022-11-20T16:14:02.449Z,4.78
2022-11-20T16:16:28.541Z,4.86
2022-11-20T16:18:54.649Z,4.91
2022-11-20T16:21:20.742Z,4.88
2022-11-20T16:23:46.832Z,4.89
2022-11-20T16:26:12.943Z,4.89
2022-11-20T16:28:39.033Z,4.80
2022-11-20T16:31:05.129Z,4.84
2022-11-20T16:33:31.321Z,4.89
2022-11-20T16:35:57.412Z,4.86
2022-11-20T16:38:23.580Z,4.82
2022-11-20T16:40:49.744Z,4.84
2022-11-20T16:43:15.830Z,4.83
2022-11-20T16:45:41.935Z,4.81
2022-11-20T16:48:08.063Z,4.79
2022-11-20T16:50:34.148Z,4.73
2022-11-20T16:53:00.252Z,4.82
2022-11-20T16:55:26.652Z,4.73
2022-11-20T16:57:52.745Z,4.74
2022-11-20T17:00:18.858Z,4.69
2022-11-20T17:02:45.114Z,4.67
2022-11-20T17:05:11.204Z,4.70
2022-11-20T17:07:37.334Z,4.78
2022-11-20T17:10:03.448Z,4.77
2022-11-20T17:12:29.550Z,4.80
2022-11-20T17:14:55.652Z,4.73
2022-11-20T17:17:21.764Z,4.82
2022-11-20T17:19:47.856Z,4.77
2022-11-20T17:22:13.943Z,4.70
2022-11-20T17:24:40.056Z,4.75
2022-11-20T17:27:06.148Z,4.76
2022-11-20T17:29:32.237Z,4.78
2022-11-20T17:31:58.347Z,4.80
2022-11-20T17:34:24.705Z,4.83
2022-11-20T17:36:51.000Z,4.86
2022-11-20T17:39:17.156Z,4.86
2022-11-20T17:41:43.252Z,4.87
2022-11-20T17:44:09.351Z,4.89
2022-11-20T17:46:35.455Z,4.94
2022-11-20T17:49:01.556Z,4.83
2022-11-20T17:51:27.681Z,4.85
2022-11-20T17:53:53.799Z,4.88
2022-11-20T17:56:19.901Z,4.91
2022-11-20T17:58:45.992Z,4.95
2022-11-20T18:01:12.128Z,4.96
2022-11-20T18:03:38.249Z,4.84
2022-11-20T18:06:04.335Z,4.86
2022-11-20T18:08:30.444Z,4.88
2022-11-20T18:10:56.543Z,4.95
2022-11-20T18:13:22.633Z,5.02
2022-11-20T18:15:48.739Z,4.99
2022-11-20T18:18:14.832Z,4.90
2022-11-20T18:20:40.975Z,4.99
2022-11-20T18:23:07.115Z,5.00
2022-11-20T18:25:33.207Z,5.04
2022-11-20T18:27:59.300Z,4.87
2022-11-20T18:30:25.416Z,4.87
2022-11-20T18:32:51.580Z,4.92
2022-11-20T18:35:17.676Z,4.81
2022-11-20T18:37:43.871Z,4.85
2022-11-20T18:40:09.952Z,4.91
2022-11-20T18:42:36.056Z,4.87
2022-11-20T18:45:02.167Z,4.92
2022-11-20T18:47:28.253Z,4.86
2022-11-20T18:49:54.369Z,4.84
2022-11-20T18:52:20.524Z,4.95
2022-11-20T18:54:46.616Z,4.79
2022-11-20T18:57:12.710Z,4.83
2022-11-20T18:59:39.095Z,4.84
2022-11-20T19:02:05.185Z,4.81
2022-11-20T19:04:31.264Z,4.73
2022-11-20T19:06:57.382Z,4.72
2022-11-20T19:09:23.870Z,4.80
2022-11-20T19:11:50.353Z,4.66
2022-11-20T19:14:16.472Z,4.78
2022-11-20T19:16:42.575Z,4.81
2022-11-20T19:19:08.671Z,4.82
2022-11-20T19:21:34.787Z,4.87
2022-11-20T19:24:00.874Z,4.91
2022-11-20T19:26:26.963Z,4.96
2022-11-20T19:28:53.074Z,4.92
2022-11-20T19:31:23.147Z,4.94
2022-11-20T19:33:50.647Z,4.91
2022-11-20T19:36:16.752Z,4.96
2022-11-20T19:38:47.681Z,4.91
2022-11-20T19:41:14.032Z,4.91
2022-11-20T19:43:40.501Z,4.98
2022-11-20T19:46:06.593Z,4.94
2022-11-20T19:48:32.689Z,5.01
2022-11-20T19:50:58.792Z,5.04
2022-11-20T19:53:24.881Z,5.06
2022-11-20T19:55:50.975Z,5.07
2022-11-20T19:58:17.079Z,5.02
2022-11-20T20:00:43.174Z,5.05
2022-11-20T20:03:09.261Z,5.12
2022-11-20T20:05:35.377Z,5.18
2022-11-20T20:08:01.463Z,5.16
2022-11-20T20:10:27.563Z,5.19
2022-11-20T20:12:53.678Z,5.23
2022-11-20T20:15:19.774Z,5.26
2022-11-20T20:17:45.863Z,5.30
2022-11-20T20:20:11.973Z,5.25
2022-11-20T20:22:38.069Z,5.24
2022-11-20T20:25:04.517Z,5.31
2022-11-20T20:27:30.624Z,5.36
2022-11-20T20:29:56.708Z,5.40
2022-11-20T20:32:24.382Z,5.41
2022-11-20T20:34:50.500Z,5.43
2022-11-20T20:37:16.622Z,5.42
2022-11-20T20:39:45.739Z,5.46
2022-11-20T20:42:11.858Z,5.52
2022-11-20T20:44:37.944Z,5.57
2022-11-20T20:47:04.527Z,5.60
2022-11-20T20:49:30.635Z,5.66
2022-11-20T20:51:56.743Z,5.63
2022-11-20T20:54:22.837Z,5.68
2022-11-20T20:56:48.957Z,5.67
2022-11-20T20:59:15.049Z,5.66
2022-11-20T21:01:41.158Z,5.69
2022-11-20T21:04:07.771Z,5.69
2022-11-20T21:06:33.872Z,5.75
2022-11-20T21:08:59.963Z,5.76
2022-11-20T21:11:26.069Z,5.71
2022-11-20T21:13:52.144Z,5.72
2022-11-20T21:16:18.239Z,5.71
2022-11-20T21:18:44.344Z,5.70
2022-11-20T21:21:10.435Z,5.68
2022-11-20T21:23:36.532Z,5.68
2022-11-20T21:26:02.651Z,5.65
2022-11-20T21:28:28.735Z,5.74
2022-11-20T21:30:54.821Z,5.67
2022-11-20T21:33:20.935Z,5.65
2022-11-20T21:35:47.019Z,5.67
2022-11-20T21:38:13.103Z,5.66
2022-11-20T21:40:39.206Z,5.52
2022-11-20T21:43:05.296Z,5.48
2022-11-20T21:45:31.376Z,5.25
2022-11-20T21:47:57.506Z,5.13
2022-11-20T21:50:23.708Z,5.07
2022-11-20T21:52:49.837Z,4.98
2022-11-20T21:55:15.968Z,5.01
2022-11-20T21:57:42.056Z,4.93
2022-11-20T22:00:08.146Z,4.88
2022-11-20T22:02:34.256Z,4.84
2022-11-20T22:05:00.344Z,4.83
2022-11-20T22:07:26.454Z,4.80
2022-11-20T22:09:52.611Z,4.74
2022-11-20T22:12:18.711Z,4.78
2022-11-20T22:14:44.800Z,4.76
2022-11-20T22:17:10.908Z,4.65
2022-11-20T22:19:36.987Z,4.61
2022-11-20T22:22:03.073Z,4.57
2022-11-20T22:24:29.196Z,4.56
2022-11-20T22:26:55.296Z,4.45
2022-11-20T22:29:21.469Z,4.39
2022-11-20T22:31:47.632Z,4.33
2022-11-20T22:34:13.732Z,4.32
2022-11-20T22:36:39.824Z,4.29
2022-11-20T22:39:05.944Z,4.21
2022-11-20T22:41:32.039Z,4.26
2022-11-20T22:43:58.134Z,4.21
2022-11-20T22:46:24.257Z,4.15
2022-11-20T22:48:50.372Z,4.11
2022-11-20T22:51:16.489Z,4.12
2022-11-20T22:53:42.596Z,4.09
2022-11-20T22:56:08.689Z,4.05
2022-11-20T22:58:34.772Z,4.02
2022-11-20T23:01:00.874Z,4.00
2022-11-20T23:03:27.007Z,4.02
2022-11-20T23:05:53.154Z,4.01
2022-11-20T23:08:19.754Z,4.04
2022-11-20T23:10:45.843Z,4.09
2022-11-20T23:13:11.919Z,4.07
2022-11-20T23:15:38.027Z,4.04
2022-11-20T23:18:04.124Z,3.90
2022-11-20T23:20:30.219Z,3.95
2022-11-20T23:22:56.349Z,3.86
2022-11-20T23:25:22.443Z,3.82
2022-11-20T23:27:48.538Z,3.83
2022-11-20T23:30:14.640Z,3.80
2022-11-20T23:32:40.741Z,3.72
2022-11-20T23:35:06.841Z,3.56
2022-11-20T23:37:32.939Z,3.61
2022-11-20T23:39:59.024Z,3.56
2022-11-20T23:42:25.126Z,3.60
2022-11-20T23:44:51.230Z,3.64
2022-11-20T23:47:17.333Z,3.62
2022-11-20T23:49:43.424Z,3.52
2022-11-20T23:52:10.018Z,3.49
2022-11-20T23:54:36.112Z,3.58
2022-11-20T23:57:02.208Z,3.59
2022-11-20T23:59:28.386Z,3.57
